Sydney Mines, Canada
Current Conditions -  °F | °C
As of 1:00 PM on Thursday 30 Oct 2014 (Local Time) from CYQY Reporting Station
Rain Showers Rain Showers  
Wind Chill: 54°   Ceiling: 4900
Heat Index: 54°   Visibility: 10mi
Dew Point: 48°   Wind: 14mph
Humidity: 82%   Direction: 270°W
Pressure: 29.71"   Gusts: NA
Location:  46.23°N, 60.22°W
Report Text: CYQY 301600Z 27012KT 10SM -SHRA FEW020 BKN049 OVC084 12/09 A2971 RMK SC2SC3AC3 SLP061
Loading
Personal Weather Stations






























Interactive Weather Map
Tropical Storm Tracking
New forecast layout! Learn more

10-Day Weather Forecast

Advertisements
Track Severe Weather on mobile